createdAt,value
2022-08-25T00:00:59.081Z,0.00
2022-08-25T00:01:59.052Z,0.00
2022-08-25T00:02:59.097Z,0.00
2022-08-25T00:03:59.035Z,0.00
2022-08-25T00:04:59.039Z,0.00
2022-08-25T00:05:59.066Z,0.00
2022-08-25T00:07:02.904Z,0.00
2022-08-25T00:08:00.081Z,0.00
2022-08-25T00:08:58.987Z,0.00
2022-08-25T00:09:58.979Z,0.00
2022-08-25T00:11:03.469Z,0.00
2022-08-25T00:11:58.970Z,0.00
2022-08-25T00:12:58.949Z,0.00
2022-08-25T00:13:58.938Z,0.00
2022-08-25T00:14:58.929Z,0.00
2022-08-25T00:15:58.966Z,0.00
2022-08-25T00:16:58.934Z,0.00
2022-08-25T00:17:58.977Z,0.00
2022-08-25T00:18:58.881Z,0.00
2022-08-25T00:19:58.866Z,0.00
2022-08-25T00:20:58.867Z,0.00
2022-08-25T00:21:58.887Z,0.00
2022-08-25T00:22:58.848Z,0.00
2022-08-25T00:23:58.841Z,0.00
2022-08-25T00:24:58.830Z,0.00
2022-08-25T00:25:58.822Z,0.00
2022-08-25T00:26:58.824Z,0.00
2022-08-25T00:27:58.793Z,0.00
2022-08-25T00:29:01.886Z,0.00
2022-08-25T00:29:58.787Z,0.00
2022-08-25T00:30:58.829Z,0.00
2022-08-25T00:31:58.784Z,0.00
2022-08-25T00:32:58.763Z,0.00
2022-08-25T00:33:58.744Z,0.00
2022-08-25T00:34:58.734Z,0.00
2022-08-25T00:35:58.723Z,0.00
2022-08-25T00:36:58.734Z,0.00
2022-08-25T00:37:58.705Z,0.00
2022-08-25T00:38:58.698Z,0.00
2022-08-25T00:39:58.739Z,0.00
2022-08-25T00:40:58.674Z,0.00
2022-08-25T00:41:58.682Z,0.00
2022-08-25T00:42:58.655Z,0.00
2022-08-25T00:43:58.644Z,0.00
2022-08-25T00:44:58.639Z,0.00
2022-08-25T00:45:58.651Z,0.00
2022-08-25T00:46:58.635Z,0.00
2022-08-25T00:48:00.035Z,0.00
2022-08-25T00:48:58.591Z,0.00
2022-08-25T00:49:58.586Z,0.00
2022-08-25T00:50:58.572Z,0.00
2022-08-25T00:51:58.605Z,0.00
2022-08-25T00:52:58.555Z,0.00
2022-08-25T00:53:58.538Z,0.00
2022-08-25T00:55:01.912Z,0.00
2022-08-25T00:55:58.530Z,0.00
2022-08-25T00:56:58.540Z,0.00
2022-08-25T00:57:58.525Z,0.00
2022-08-25T00:58:58.494Z,0.00
2022-08-25T00:59:58.517Z,0.00
2022-08-25T01:00:58.484Z,0.00
2022-08-25T01:01:58.533Z,0.00
2022-08-25T01:02:58.476Z,0.00
2022-08-25T01:03:58.438Z,0.00
2022-08-25T01:04:58.433Z,0.00
2022-08-25T01:05:58.438Z,0.00
2022-08-25T01:06:58.481Z,0.00
2022-08-25T01:07:58.727Z,0.00
2022-08-25T01:08:58.398Z,0.00
2022-08-25T01:09:58.390Z,0.00
2022-08-25T01:10:58.382Z,0.00
2022-08-25T01:11:58.407Z,0.00
2022-08-25T01:12:58.348Z,0.00
2022-08-25T01:13:58.351Z,0.00
2022-08-25T01:14:58.337Z,0.00
2022-08-25T01:15:58.352Z,0.00
2022-08-25T01:16:58.327Z,0.00
2022-08-25T01:17:58.303Z,0.00
2022-08-25T01:18:58.300Z,0.00
2022-08-25T01:19:58.286Z,0.00
2022-08-25T01:20:58.271Z,0.00
2022-08-25T01:21:58.283Z,0.00
2022-08-25T01:22:58.259Z,0.00
2022-08-25T01:23:58.269Z,0.00
2022-08-25T01:24:58.238Z,0.00
2022-08-25T01:25:58.222Z,0.00
2022-08-25T01:26:58.229Z,0.00
2022-08-25T01:27:58.195Z,0.00
2022-08-25T01:28:58.197Z,0.00
2022-08-25T01:29:58.209Z,0.00
2022-08-25T01:30:58.286Z,0.00
2022-08-25T01:31:58.190Z,0.00
2022-08-25T01:32:58.162Z,0.00
2022-08-25T01:33:58.163Z,0.00
2022-08-25T01:34:58.148Z,0.00
2022-08-25T01:35:58.130Z,0.00
2022-08-25T01:36:58.144Z,0.00
2022-08-25T01:37:58.118Z,0.00
2022-08-25T01:38:58.104Z,0.00
2022-08-25T01:39:58.116Z,0.00
2022-08-25T01:40:58.079Z,0.00
2022-08-25T01:41:58.095Z,0.00
2022-08-25T01:42:58.065Z,0.00
2022-08-25T01:43:58.056Z,0.00
2022-08-25T01:44:58.044Z,0.00
2022-08-25T01:45:58.102Z,0.00
2022-08-25T01:46:58.045Z,0.00
2022-08-25T01:47:58.015Z,0.00
2022-08-25T01:48:58.017Z,0.00
2022-08-25T01:49:57.985Z,0.00
2022-08-25T01:50:57.984Z,0.00
2022-08-25T01:51:57.997Z,0.00
2022-08-25T01:52:57.963Z,0.00
2022-08-25T01:53:57.956Z,0.00
2022-08-25T01:54:57.959Z,0.00
2022-08-25T01:55:57.922Z,0.00
2022-08-25T01:56:57.939Z,0.00
2022-08-25T01:57:57.917Z,0.00
2022-08-25T01:58:57.910Z,0.00
2022-08-25T01:59:57.902Z,0.00
2022-08-25T02:00:57.927Z,0.00
2022-08-25T02:02:00.043Z,0.00
2022-08-25T02:04:58.758Z,0.00
2022-08-25T02:05:43.985Z,0.00
2022-08-25T02:06:43.991Z,0.00
2022-08-25T02:07:43.964Z,0.00
2022-08-25T02:08:43.958Z,0.00
2022-08-25T02:09:45.063Z,0.00
2022-08-25T02:10:45.054Z,0.00
2022-08-25T02:11:45.068Z,0.00
2022-08-25T02:12:45.032Z,0.00
2022-08-25T02:13:45.015Z,0.00
2022-08-25T02:14:45.012Z,0.00
2022-08-25T02:15:45.010Z,0.00
2022-08-25T02:16:45.034Z,0.00
2022-08-25T02:17:44.984Z,0.00
2022-08-25T02:18:44.973Z,0.00
2022-08-25T02:19:44.962Z,0.00
2022-08-25T02:20:44.954Z,0.00
2022-08-25T02:21:44.964Z,0.00
2022-08-25T02:22:51.185Z,0.00
2022-08-25T02:23:45.930Z,0.00
2022-08-25T02:24:44.920Z,0.00
2022-08-25T02:25:44.905Z,0.00
2022-08-25T02:26:44.910Z,0.00
2022-08-25T02:27:44.882Z,0.00
2022-08-25T02:28:44.861Z,0.00
2022-08-25T02:29:44.851Z,0.00
2022-08-25T02:30:44.899Z,0.00
2022-08-25T02:31:44.861Z,0.00
2022-08-25T02:32:44.833Z,0.00
2022-08-25T02:33:44.820Z,0.00
2022-08-25T02:34:44.815Z,0.00
2022-08-25T02:35:44.801Z,0.00
2022-08-25T02:36:44.806Z,0.00
2022-08-25T02:37:44.786Z,0.00
2022-08-25T02:38:44.767Z,0.00
2022-08-25T02:39:45.789Z,0.00
2022-08-25T02:40:44.751Z,0.00
2022-08-25T02:41:44.748Z,0.00
2022-08-25T02:42:44.743Z,0.00
2022-08-25T02:43:44.720Z,0.00
2022-08-25T02:44:44.711Z,0.00
2022-08-25T02:45:44.773Z,0.00
2022-08-25T02:46:44.704Z,0.00
2022-08-25T02:47:44.683Z,0.00
2022-08-25T02:48:44.670Z,0.00
2022-08-25T02:49:44.649Z,0.00
2022-08-25T02:50:44.650Z,0.00
2022-08-25T02:51:44.658Z,0.00
2022-08-25T02:52:44.639Z,0.00
2022-08-25T02:53:44.612Z,0.00
2022-08-25T02:54:44.601Z,0.00
2022-08-25T02:55:44.599Z,0.00
2022-08-25T02:56:44.599Z,0.00
2022-08-25T02:57:44.568Z,0.00
2022-08-25T02:58:44.569Z,0.00
2022-08-25T02:59:44.564Z,0.00
2022-08-25T03:00:44.605Z,0.00
2022-08-25T03:01:44.549Z,0.00
2022-08-25T03:02:44.528Z,0.00
2022-08-25T03:03:44.686Z,0.00
2022-08-25T03:04:44.564Z,0.00
2022-08-25T03:05:44.492Z,0.00
2022-08-25T03:07:16.394Z,0.00
2022-08-25T03:07:44.471Z,0.00
2022-08-25T03:08:44.472Z,0.00
2022-08-25T03:09:44.463Z,0.00
2022-08-25T03:10:44.457Z,0.00
2022-08-25T03:11:44.463Z,0.00
2022-08-25T03:12:44.437Z,0.00
2022-08-25T03:13:44.420Z,0.00
2022-08-25T03:14:44.429Z,0.00
2022-08-25T03:15:44.411Z,0.00
2022-08-25T03:16:46.238Z,0.00
2022-08-25T03:17:45.850Z,0.00
2022-08-25T03:18:44.376Z,0.00
2022-08-25T03:19:44.369Z,0.00
2022-08-25T03:20:44.401Z,0.00
2022-08-25T03:21:44.357Z,0.00
2022-08-25T03:22:44.339Z,0.00
2022-08-25T03:23:44.339Z,0.00
2022-08-25T03:24:44.327Z,0.00
2022-08-25T03:25:44.306Z,0.00
2022-08-25T03:26:44.320Z,0.00
2022-08-25T03:27:44.298Z,0.00
2022-08-25T03:28:44.292Z,0.00
2022-08-25T03:29:44.269Z,0.00
2022-08-25T03:30:44.268Z,0.00
2022-08-25T03:31:44.314Z,0.00
2022-08-25T03:32:44.250Z,0.00
2022-08-25T03:33:44.232Z,0.00
2022-08-25T03:34:44.226Z,0.00
2022-08-25T03:35:44.208Z,0.00
2022-08-25T03:36:44.230Z,0.00
2022-08-25T03:37:44.194Z,0.00
2022-08-25T03:38:44.185Z,0.00
2022-08-25T03:39:44.336Z,0.00
2022-08-25T03:40:44.171Z,0.00
2022-08-25T03:41:44.168Z,0.00
2022-08-25T03:42:45.173Z,0.00
2022-08-25T03:43:45.148Z,0.00
2022-08-25T03:44:44.135Z,4.00
2022-08-25T03:45:44.161Z,4.00
2022-08-25T03:46:44.122Z,0.00
2022-08-25T03:47:44.098Z,0.00
2022-08-25T03:48:44.094Z,4.00
2022-08-25T03:49:44.081Z,0.00
2022-08-25T03:50:44.118Z,4.00
2022-08-25T03:51:45.080Z,4.00
2022-08-25T03:52:44.058Z,8.00
2022-08-25T03:53:44.030Z,8.00
2022-08-25T03:54:44.026Z,8.00
2022-08-25T03:55:44.013Z,8.00
2022-08-25T03:56:44.034Z,8.00
2022-08-25T03:57:43.993Z,8.00
2022-08-25T03:58:43.986Z,16.00
2022-08-25T03:59:44.979Z,16.00
2022-08-25T04:00:43.988Z,20.00
2022-08-25T04:01:43.963Z,20.00
2022-08-25T04:02:44.017Z,24.00
2022-08-25T04:03:43.943Z,32.00
2022-08-25T04:04:43.924Z,36.00
2022-08-25T04:05:43.905Z,44.00
2022-08-25T04:06:43.922Z,48.00
2022-08-25T04:07:44.899Z,56.00
2022-08-25T04:08:43.903Z,68.00
2022-08-25T04:09:43.883Z,76.00
2022-08-25T04:10:43.879Z,84.00
2022-08-25T04:11:43.877Z,96.00
2022-08-25T04:12:43.854Z,112.00
2022-08-25T04:13:43.832Z,128.00
2022-08-25T04:14:43.834Z,140.00
2022-08-25T04:15:43.816Z,160.00
2022-08-25T04:16:43.930Z,180.00
2022-08-25T04:17:43.796Z,200.00
2022-08-25T04:18:43.788Z,220.00
2022-08-25T04:19:43.778Z,248.00
2022-08-25T04:20:46.695Z,272.00
2022-08-25T04:21:44.775Z,300.00
2022-08-25T04:22:45.194Z,328.00
2022-08-25T04:23:43.734Z,356.00
2022-08-25T04:24:43.750Z,388.00
2022-08-25T04:25:43.718Z,424.00
2022-08-25T04:26:43.722Z,460.00
2022-08-25T04:27:43.694Z,496.00
2022-08-25T04:28:43.688Z,540.00
2022-08-25T04:29:43.671Z,580.00
2022-08-25T04:30:43.689Z,620.00
2022-08-25T04:31:43.783Z,664.00
2022-08-25T04:32:43.647Z,708.00
2022-08-25T04:33:43.643Z,756.00
2022-08-25T04:34:43.630Z,804.00
2022-08-25T04:35:43.617Z,856.00
2022-08-25T04:36:43.620Z,908.00
2022-08-25T04:37:43.592Z,964.00
2022-08-25T04:38:43.625Z,1016.00
2022-08-25T04:39:43.580Z,1072.00
2022-08-25T04:40:43.630Z,1128.00
2022-08-25T04:41:43.576Z,1188.00
2022-08-25T04:42:43.649Z,1248.00
2022-08-25T04:43:43.544Z,1308.00
2022-08-25T04:44:43.525Z,1364.00
2022-08-25T04:45:43.555Z,1424.00
2022-08-25T04:46:43.525Z,1484.00
2022-08-25T04:47:43.603Z,1548.00
2022-08-25T04:48:43.492Z,1616.00
2022-08-25T04:49:43.486Z,1680.00
2022-08-25T04:50:43.481Z,1740.00
2022-08-25T04:51:43.483Z,1804.00
2022-08-25T04:52:43.459Z,1868.00
2022-08-25T04:53:43.443Z,1932.00
2022-08-25T04:54:43.448Z,2000.00
2022-08-25T04:55:43.431Z,2060.00
2022-08-25T04:56:43.427Z,2124.00
2022-08-25T04:57:43.422Z,2188.00
2022-08-25T04:58:43.482Z,2248.00
2022-08-25T04:59:43.384Z,2312.00
2022-08-25T05:00:43.413Z,2376.00
2022-08-25T05:01:43.376Z,2436.00
2022-08-25T05:02:43.357Z,2496.00
2022-08-25T05:03:43.354Z,2560.00
2022-08-25T05:04:43.424Z,2620.00
2022-08-25T05:05:43.334Z,2684.00
2022-08-25T05:06:43.336Z,2744.00
2022-08-25T05:07:43.304Z,2808.00
2022-08-25T05:08:46.030Z,2868.00
2022-08-25T05:09:43.291Z,2928.00
2022-08-25T05:10:43.279Z,2988.00
2022-08-25T05:11:43.283Z,3048.00
2022-08-25T05:12:43.254Z,3108.00
2022-08-25T05:13:43.248Z,3172.00
2022-08-25T05:14:43.245Z,3232.00
2022-08-25T05:15:43.269Z,3292.00
2022-08-25T05:16:43.301Z,3352.00
2022-08-25T05:17:43.213Z,3412.00
2022-08-25T05:18:43.203Z,3468.00
2022-08-25T05:19:44.192Z,3524.00
2022-08-25T05:20:43.173Z,3576.00
2022-08-25T05:21:43.184Z,3632.00
2022-08-25T05:22:43.184Z,3684.00
2022-08-25T05:23:43.156Z,3744.00
2022-08-25T05:24:43.143Z,3788.00
2022-08-25T05:25:44.136Z,3844.00
2022-08-25T05:26:43.138Z,3892.00
2022-08-25T05:27:43.116Z,3936.00
2022-08-25T05:28:43.097Z,3976.00
2022-08-25T05:29:43.097Z,4008.00
2022-08-25T05:30:43.084Z,4076.00
2022-08-25T05:31:47.055Z,4144.00
2022-08-25T05:32:44.062Z,4192.00
2022-08-25T05:33:43.050Z,4240.00
2022-08-25T05:34:43.042Z,4284.00
2022-08-25T05:35:43.034Z,4328.00
2022-08-25T05:36:43.037Z,4368.00
2022-08-25T05:37:43.016Z,4416.00
2022-08-25T05:38:43.004Z,4460.00
2022-08-25T05:39:43.002Z,4504.00
2022-08-25T05:40:42.990Z,4548.00
2022-08-25T05:41:42.988Z,4592.00
2022-08-25T05:42:42.964Z,4632.00
2022-08-25T05:43:42.952Z,4672.00
2022-08-25T05:44:42.942Z,4712.00
2022-08-25T05:45:43.014Z,4756.00
2022-08-25T05:46:42.940Z,4796.00
2022-08-25T05:47:42.919Z,4836.00
2022-08-25T05:48:42.893Z,4872.00
2022-08-25T05:49:42.892Z,4904.00
2022-08-25T05:50:42.904Z,4940.00
2022-08-25T05:51:42.886Z,4980.00
2022-08-25T05:52:42.878Z,5012.00
2022-08-25T05:53:42.850Z,5052.00
2022-08-25T05:54:43.091Z,5088.00
2022-08-25T05:55:42.836Z,5124.00
2022-08-25T05:56:42.826Z,5160.00
2022-08-25T05:57:42.808Z,5204.00
2022-08-25T05:58:42.801Z,5240.00
2022-08-25T05:59:42.792Z,5276.00
2022-08-25T06:00:42.842Z,5312.00
2022-08-25T06:01:43.551Z,5348.00
2022-08-25T06:02:42.757Z,5384.00
2022-08-25T06:03:42.807Z,5420.00
2022-08-25T06:04:42.738Z,5456.00
2022-08-25T06:05:42.731Z,5500.00
2022-08-25T06:06:42.736Z,5536.00
2022-08-25T06:07:42.713Z,5576.00
2022-08-25T06:08:42.701Z,5616.00
2022-08-25T06:09:42.690Z,5644.00
2022-08-25T06:10:42.685Z,5668.00
2022-08-25T06:11:42.705Z,5700.00
2022-08-25T06:12:42.663Z,5728.00
2022-08-25T06:13:42.652Z,5768.00
2022-08-25T06:14:42.654Z,5804.00
2022-08-25T06:15:42.629Z,5844.00
2022-08-25T06:16:42.662Z,5876.00
2022-08-25T06:17:42.623Z,5904.00
2022-08-25T06:18:42.598Z,5940.00
2022-08-25T06:19:42.593Z,5976.00
2022-08-25T06:20:42.583Z,6012.00
2022-08-25T06:21:42.592Z,6048.00
2022-08-25T06:22:42.563Z,6080.00
2022-08-25T06:23:42.547Z,6112.00
2022-08-25T06:24:42.551Z,6144.00
2022-08-25T06:25:42.540Z,6168.00
2022-08-25T06:26:42.544Z,6180.00
2022-08-25T06:27:42.510Z,6156.00
2022-08-25T06:28:42.504Z,6164.00
2022-08-25T06:29:42.499Z,6168.00
2022-08-25T06:30:42.484Z,6208.00
2022-08-25T06:31:42.700Z,6288.00
2022-08-25T06:32:42.466Z,6392.00
2022-08-25T06:33:42.459Z,6440.00
2022-08-25T06:34:42.458Z,6476.00
2022-08-25T06:35:42.450Z,6516.00
2022-08-25T06:36:42.441Z,6552.00
2022-08-25T06:37:42.416Z,6584.00
2022-08-25T06:38:42.417Z,6612.00
2022-08-25T06:39:42.398Z,6640.00
2022-08-25T06:40:42.387Z,6660.00
2022-08-25T06:41:42.395Z,6688.00
2022-08-25T06:42:42.373Z,6712.00
2022-08-25T06:43:48.030Z,6732.00
2022-08-25T06:44:43.343Z,6756.00
2022-08-25T06:45:42.340Z,6776.00
2022-08-25T06:46:42.393Z,6796.00
2022-08-25T06:47:42.306Z,6820.00
2022-08-25T06:48:42.304Z,6836.00
2022-08-25T06:49:42.299Z,6860.00
2022-08-25T06:50:42.288Z,6888.00
2022-08-25T06:51:42.294Z,6916.00
2022-08-25T06:52:42.268Z,6936.00
2022-08-25T06:53:42.262Z,6952.00
2022-08-25T06:54:42.245Z,6972.00
2022-08-25T06:55:42.237Z,6988.00
2022-08-25T06:56:42.245Z,7008.00
2022-08-25T06:57:42.224Z,7028.00
2022-08-25T06:58:42.253Z,7056.00
2022-08-25T06:59:42.201Z,7080.00
2022-08-25T07:00:42.232Z,7092.00
2022-08-25T07:01:42.292Z,7108.00
2022-08-25T07:02:42.225Z,7120.00
2022-08-25T07:03:42.165Z,7140.00
2022-08-25T07:04:42.153Z,7180.00
2022-08-25T07:05:43.919Z,7192.00
2022-08-25T07:06:43.143Z,7216.00
2022-08-25T07:07:43.640Z,7252.00
2022-08-25T07:08:42.136Z,7264.00
2022-08-25T07:09:42.119Z,7260.00
2022-08-25T07:10:42.107Z,7292.00
2022-08-25T07:11:42.123Z,7340.00
2022-08-25T07:12:42.085Z,7356.00
2022-08-25T07:13:42.099Z,7344.00
2022-08-25T07:14:46.598Z,7364.00
2022-08-25T07:15:43.058Z,7296.00
2022-08-25T07:16:45.994Z,7304.00
2022-08-25T07:17:43.042Z,7272.00
2022-08-25T07:18:42.037Z,7240.00
2022-08-25T07:19:42.026Z,7288.00
2022-08-25T07:20:42.025Z,7260.00
2022-08-25T07:21:42.026Z,7376.00
2022-08-25T07:22:41.998Z,7396.00
2022-08-25T07:23:41.993Z,7412.00
2022-08-25T07:24:41.980Z,7400.00
2022-08-25T07:25:41.967Z,7376.00
2022-08-25T07:26:41.983Z,7352.00
2022-08-25T07:27:42.240Z,7392.00
2022-08-25T07:28:47.339Z,7368.00
2022-08-25T07:29:42.931Z,7392.00
2022-08-25T07:30:41.933Z,7380.00
2022-08-25T07:31:42.012Z,7368.00
2022-08-25T07:32:43.242Z,7328.00
2022-08-25T07:33:41.895Z,7344.00
2022-08-25T07:34:41.898Z,7408.00
2022-08-25T07:35:43.795Z,7440.00
2022-08-25T07:36:41.885Z,7384.00
2022-08-25T07:37:49.743Z,7464.00
2022-08-25T07:38:43.848Z,7500.00
2022-08-25T07:39:41.836Z,7700.00
2022-08-25T07:40:42.696Z,7812.00
2022-08-25T07:41:41.849Z,7864.00
2022-08-25T07:42:41.810Z,7884.00
2022-08-25T07:43:41.801Z,7908.00
2022-08-25T07:44:41.789Z,7944.00
2022-08-25T07:45:49.496Z,7988.00
2022-08-25T07:46:42.837Z,8008.00
2022-08-25T07:47:41.809Z,8028.00
2022-08-25T07:48:41.747Z,8040.00
2022-08-25T07:49:41.741Z,8048.00
2022-08-25T07:50:41.761Z,8100.00
2022-08-25T07:52:04.271Z,8112.00
2022-08-25T07:52:42.741Z,8144.00
2022-08-25T07:53:41.708Z,8176.00
2022-08-25T07:54:41.696Z,8156.00
2022-08-25T07:55:41.680Z,8212.00
2022-08-25T07:56:41.691Z,8240.00
2022-08-25T07:57:41.667Z,8252.00
2022-08-25T07:58:41.651Z,8280.00
2022-08-25T07:59:41.631Z,8252.00
2022-08-25T08:00:42.191Z,8252.00
2022-08-25T08:01:41.682Z,8312.00
2022-08-25T08:02:41.666Z,8324.00
2022-08-25T08:03:50.636Z,8280.00
2022-08-25T08:04:43.584Z,8348.00
2022-08-25T08:05:41.579Z,8360.00
2022-08-25T08:06:41.581Z,8356.00
2022-08-25T08:07:43.820Z,8432.00
2022-08-25T08:08:41.633Z,8452.00
2022-08-25T08:09:41.540Z,8480.00
2022-08-25T08:11:02.749Z,8500.00
2022-08-25T08:11:53.701Z,8540.00
2022-08-25T08:12:43.508Z,8604.00
2022-08-25T08:13:41.640Z,8608.00
2022-08-25T08:14:45.032Z,8660.00
2022-08-25T08:15:41.529Z,7708.00
2022-08-25T08:16:41.487Z,7664.00
2022-08-25T08:17:41.473Z,7748.00
2022-08-25T08:18:41.449Z,7968.00
2022-08-25T08:19:44.863Z,8080.00
2022-08-25T08:20:42.947Z,7872.00
2022-08-25T08:21:41.451Z,8284.00
2022-08-25T08:22:41.412Z,8564.00
2022-08-25T08:23:41.432Z,8636.00
2022-08-25T08:24:44.864Z,8640.00
2022-08-25T08:25:43.377Z,8620.00
2022-08-25T08:26:58.269Z,8732.00
2022-08-25T08:27:43.363Z,8844.00
2022-08-25T08:28:41.351Z,8964.00
2022-08-25T08:29:41.336Z,9156.00
2022-08-25T08:30:53.509Z,9396.00
2022-08-25T08:31:48.584Z,9376.00
2022-08-25T08:33:08.217Z,9260.00
2022-08-25T08:33:43.304Z,9304.00
2022-08-25T08:34:41.294Z,9384.00
2022-08-25T08:35:41.307Z,9324.00
2022-08-25T08:36:41.288Z,9364.00
2022-08-25T08:37:41.262Z,9380.00
2022-08-25T08:38:41.246Z,9428.00
2022-08-25T08:39:41.241Z,9372.00
2022-08-25T08:40:41.236Z,9500.00
2022-08-25T08:42:07.672Z,9520.00
2022-08-25T08:42:46.735Z,9616.00
2022-08-25T08:43:41.216Z,9748.00
2022-08-25T08:44:41.188Z,9944.00
2022-08-25T08:45:43.990Z,10268.00
2022-08-25T08:46:41.240Z,10460.00
2022-08-25T08:47:41.286Z,10504.00
2022-08-25T08:48:41.156Z,10572.00
2022-08-25T08:49:41.148Z,9076.00
2022-08-25T08:50:41.143Z,10452.00
2022-08-25T08:51:41.147Z,10560.00
2022-08-25T08:52:41.119Z,10612.00
2022-08-25T08:53:41.115Z,10596.00
2022-08-25T08:54:41.384Z,10732.00
2022-08-25T08:55:41.095Z,10752.00
2022-08-25T08:56:45.458Z,10788.00
2022-08-25T08:57:42.155Z,10776.00
2022-08-25T08:58:41.775Z,10876.00
2022-08-25T08:59:41.060Z,11028.00
2022-08-25T09:00:41.039Z,11152.00
2022-08-25T09:01:42.090Z,10328.00
2022-08-25T09:02:50.527Z,11228.00
2022-08-25T09:03:42.063Z,11564.00
2022-08-25T09:04:41.005Z,11820.00
2022-08-25T09:05:44.951Z,11868.00
2022-08-25T09:06:42.097Z,11872.00
2022-08-25T09:07:42.334Z,11892.00
2022-08-25T09:08:44.692Z,11916.00
2022-08-25T09:09:40.957Z,12032.00
2022-08-25T09:10:40.952Z,12088.00
2022-08-25T09:11:40.958Z,11948.00
2022-08-25T09:12:40.989Z,11796.00
2022-08-25T09:13:40.928Z,11784.00
2022-08-25T09:14:40.913Z,11796.00
2022-08-25T09:15:41.237Z,11836.00
2022-08-25T09:16:40.989Z,11992.00
2022-08-25T09:17:40.885Z,11824.00
2022-08-25T09:18:40.877Z,11412.00
2022-08-25T09:19:42.349Z,12208.00
2022-08-25T09:20:40.880Z,10412.00
2022-08-25T09:21:40.861Z,12428.00
2022-08-25T09:22:40.840Z,11904.00
2022-08-25T09:23:40.830Z,10888.00
2022-08-25T09:24:40.823Z,12544.00
2022-08-25T09:25:52.728Z,10020.00
2022-08-25T09:26:41.828Z,11836.00
2022-08-25T09:27:40.817Z,11072.00
2022-08-25T09:28:40.786Z,10224.00
2022-08-25T09:29:40.772Z,10140.00
2022-08-25T09:30:40.777Z,10308.00
2022-08-25T09:31:40.821Z,12944.00
2022-08-25T09:32:40.750Z,13212.00
2022-08-25T09:33:40.740Z,13100.00
2022-08-25T09:34:40.775Z,13160.00
2022-08-25T09:35:40.755Z,13316.00
2022-08-25T09:36:40.723Z,13500.00
2022-08-25T09:37:40.701Z,13444.00
2022-08-25T09:38:40.700Z,13436.00
2022-08-25T09:39:40.815Z,13488.00
2022-08-25T09:40:40.677Z,13584.00
2022-08-25T09:41:40.688Z,13712.00
2022-08-25T09:43:12.567Z,13824.00
2022-08-25T09:43:40.651Z,13828.00
2022-08-25T09:44:40.633Z,13640.00
2022-08-25T09:45:40.633Z,13556.00
2022-08-25T09:46:40.669Z,13400.00
2022-08-25T09:47:40.620Z,12568.00
2022-08-25T09:48:40.971Z,13264.00
2022-08-25T09:49:40.590Z,13368.00
2022-08-25T09:50:45.580Z,11336.00
2022-08-25T09:51:43.401Z,13376.00
2022-08-25T09:52:41.387Z,13468.00
2022-08-25T09:53:40.560Z,13328.00
2022-08-25T09:54:44.301Z,13372.00
2022-08-25T09:55:41.536Z,13444.00
2022-08-25T09:56:40.556Z,13668.00
2022-08-25T09:57:40.516Z,11468.00
2022-08-25T09:58:40.510Z,13244.00
2022-08-25T09:59:40.504Z,13592.00
2022-08-25T10:00:41.492Z,13640.00
2022-08-25T10:01:40.537Z,10796.00
2022-08-25T10:02:40.498Z,10124.00
2022-08-25T10:03:40.465Z,9708.00
2022-08-25T10:04:40.555Z,10832.00
2022-08-25T10:05:40.448Z,9528.00
2022-08-25T10:06:40.436Z,9424.00
2022-08-25T10:07:40.453Z,11800.00
2022-08-25T10:08:40.416Z,11128.00
2022-08-25T10:09:40.411Z,9916.00
2022-08-25T10:10:41.956Z,11268.00
2022-08-25T10:11:40.387Z,12512.00
2022-08-25T10:12:42.930Z,10008.00
2022-08-25T10:13:40.371Z,11492.00
2022-08-25T10:14:44.669Z,10088.00
2022-08-25T10:15:40.380Z,10104.00
2022-08-25T10:16:40.372Z,10176.00
2022-08-25T10:17:40.350Z,9720.00
2022-08-25T10:18:40.320Z,9488.00
2022-08-25T10:19:40.324Z,9520.00
2022-08-25T10:20:42.221Z,9840.00
2022-08-25T10:21:40.297Z,9540.00
2022-08-25T10:22:40.302Z,9296.00
2022-08-25T10:23:40.277Z,9204.00
2022-08-25T10:24:41.040Z,9252.00
2022-08-25T10:25:40.276Z,9236.00
2022-08-25T10:26:40.246Z,9388.00
2022-08-25T10:27:40.253Z,9340.00
2022-08-25T10:28:40.221Z,11876.00
2022-08-25T10:29:40.858Z,12348.00
2022-08-25T10:30:40.279Z,12476.00
2022-08-25T10:31:41.328Z,12376.00
2022-08-25T10:32:40.218Z,10352.00
2022-08-25T10:33:40.187Z,12144.00
2022-08-25T10:34:40.173Z,12724.00
2022-08-25T10:35:40.167Z,11608.00
2022-08-25T10:36:40.148Z,11068.00
2022-08-25T10:37:40.175Z,13808.00
2022-08-25T10:38:43.133Z,11472.00
2022-08-25T10:39:40.697Z,12216.00
2022-08-25T10:40:40.222Z,14592.00
2022-08-25T10:41:40.106Z,15072.00
2022-08-25T10:42:40.118Z,15200.00
2022-08-25T10:43:40.099Z,13404.00
2022-08-25T10:44:40.083Z,14604.00
2022-08-25T10:45:40.075Z,15680.00
2022-08-25T10:46:40.162Z,15648.00
2022-08-25T10:47:40.067Z,15776.00
2022-08-25T10:48:40.031Z,15552.00
2022-08-25T10:49:40.028Z,15392.00
2022-08-25T10:50:40.026Z,12308.00
2022-08-25T10:51:41.019Z,12016.00
2022-08-25T10:52:40.022Z,12404.00
2022-08-25T10:53:39.987Z,12188.00
2022-08-25T10:54:39.973Z,11972.00
2022-08-25T10:55:40.461Z,14880.00
2022-08-25T10:56:40.783Z,15328.00
2022-08-25T10:57:39.977Z,15360.00
2022-08-25T10:58:39.947Z,15264.00
2022-08-25T10:59:39.935Z,14976.00
2022-08-25T11:00:40.368Z,14464.00
2022-08-25T11:01:43.938Z,13960.00
2022-08-25T11:02:41.413Z,10796.00
2022-08-25T11:03:39.896Z,11528.00
2022-08-25T11:04:39.938Z,13808.00
2022-08-25T11:05:39.971Z,13848.00
2022-08-25T11:06:39.877Z,13836.00
2022-08-25T11:07:39.878Z,13816.00
2022-08-25T11:08:39.839Z,12108.00
2022-08-25T11:09:40.212Z,13344.00
2022-08-25T11:10:39.837Z,13200.00
2022-08-25T11:11:39.819Z,12848.00
2022-08-25T11:12:39.845Z,12560.00
2022-08-25T11:13:39.802Z,12452.00
2022-08-25T11:14:39.794Z,10552.00
2022-08-25T11:15:46.757Z,12428.00
2022-08-25T11:16:41.845Z,12696.00
2022-08-25T11:17:39.778Z,12740.00
2022-08-25T11:18:39.757Z,12608.00
2022-08-25T11:19:39.746Z,12428.00
2022-08-25T11:20:39.732Z,12220.00
2022-08-25T11:21:39.730Z,11908.00
2022-08-25T11:22:39.752Z,9540.00
2022-08-25T11:23:39.704Z,12052.00
2022-08-25T11:24:39.702Z,11328.00
2022-08-25T11:25:39.681Z,9548.00
2022-08-25T11:26:40.670Z,8908.00
2022-08-25T11:27:39.695Z,8808.00
2022-08-25T11:28:39.646Z,8748.00
2022-08-25T11:29:39.645Z,8808.00
2022-08-25T11:30:39.712Z,9036.00
2022-08-25T11:31:39.627Z,11432.00
2022-08-25T11:32:39.627Z,11580.00
2022-08-25T11:33:39.607Z,9880.00
2022-08-25T11:34:43.655Z,9676.00
2022-08-25T11:35:39.598Z,9996.00
2022-08-25T11:36:39.583Z,10384.00
2022-08-25T11:37:39.591Z,12652.00
2022-08-25T11:38:39.578Z,12876.00
2022-08-25T11:39:40.225Z,10336.00
2022-08-25T11:40:39.545Z,10180.00
2022-08-25T11:41:39.543Z,9868.00
2022-08-25T11:42:39.544Z,9852.00
2022-08-25T11:43:40.530Z,12628.00
2022-08-25T11:44:39.510Z,13248.00
2022-08-25T11:45:40.571Z,13584.00
2022-08-25T11:46:39.491Z,13824.00
2022-08-25T11:47:39.493Z,13588.00
2022-08-25T11:48:39.465Z,10656.00
2022-08-25T11:49:39.462Z,11260.00
2022-08-25T11:50:39.447Z,10320.00
2022-08-25T11:51:39.465Z,13052.00
2022-08-25T11:52:39.441Z,13412.00
2022-08-25T11:53:42.143Z,13632.00
2022-08-25T11:54:39.409Z,11836.00
2022-08-25T11:55:39.399Z,10664.00
2022-08-25T11:56:40.065Z,10592.00
2022-08-25T11:57:39.444Z,12500.00
2022-08-25T11:58:40.602Z,13636.00
2022-08-25T11:59:39.363Z,13788.00
2022-08-25T12:00:39.351Z,13760.00
2022-08-25T12:01:39.348Z,13888.00
2022-08-25T12:02:39.376Z,13900.00
2022-08-25T12:03:39.324Z,13980.00
2022-08-25T12:04:44.250Z,11756.00
2022-08-25T12:05:39.339Z,12488.00
2022-08-25T12:06:39.295Z,14624.00
2022-08-25T12:07:39.301Z,14232.00
2022-08-25T12:08:39.275Z,12648.00
2022-08-25T12:09:39.264Z,14392.00
2022-08-25T12:10:39.263Z,14012.00
2022-08-25T12:11:39.255Z,13300.00
2022-08-25T12:12:39.253Z,11728.00
2022-08-25T12:13:39.225Z,12536.00
2022-08-25T12:14:39.227Z,13272.00
2022-08-25T12:15:39.214Z,13104.00
2022-08-25T12:16:39.278Z,12956.00
2022-08-25T12:17:39.455Z,12868.00
2022-08-25T12:18:39.182Z,13048.00
2022-08-25T12:19:40.180Z,12780.00
2022-08-25T12:20:39.162Z,12528.00
2022-08-25T12:21:39.161Z,13012.00
2022-08-25T12:22:39.175Z,13036.00
2022-08-25T12:23:45.022Z,13184.00
2022-08-25T12:24:40.137Z,10928.00
2022-08-25T12:25:39.116Z,10952.00